KCYS/CYS METAR and TAF weather

Enter ICAO airport designator
Station Type Date Time Source
KCYS METAR 2018/10/19 14:53 UTC NOAA

KCYS 191453Z 31013G22KT 10SM CLR 10/M01 A3034 RMK AO2 SLP237 T01001011 53024


Station Type Date Time Source
KCYS Decoded METAR 2018/10/19 14:53 UTC NOAA

CHEYENNE AIRPORT, WY, United States (KCYS) 41-09N 104-48W 1865M
Oct 19, 2018 - 10:53 AM EDT / 2018.10.19 1453 UTC
Wind: from the NW (310 degrees) at 15 MPH (13 KT) gusting to 25 MPH (22 KT):0
Visibility: 10 mile(s):0
Sky conditions: clear
Temperature: 50.0 F (10.0 C)
Dew Point: 30.0 F (-1.1 C)
Relative Humidity: 45%
Pressure (altimeter): 30.34 in. Hg (1027 hPa)
Pressure tendency: 0.07 inches (2.4 hPa) higher than three hours ago
ob: KCYS 191453Z 31013G22KT 10SM CLR 10/M01 A3034 RMK AO2 SLP237 T01001011 53024
cycle: 15

Station Type Date Time Source
KCYS TAF 2018/10/19 12:22 UTC NOAA

TAF KCYS 191120Z 1912/2012 28010KT P6SM SKC
FM191500 32012G20KT P6SM SCT100
FM192300 36006KT P6SM SKC


Example: see airport list